createdAt,value
2019-02-09T00:00:47.215Z,-1.61
2019-02-09T00:01:47.220Z,-1.59
2019-02-09T00:02:46.875Z,-1.61
2019-02-09T00:03:46.892Z,-1.61
2019-02-09T00:04:46.852Z,-1.67
2019-02-09T00:05:47.222Z,-1.74
2019-02-09T00:06:46.839Z,-1.71
2019-02-09T00:07:47.691Z,-1.72
2019-02-09T00:08:46.810Z,-1.72
2019-02-09T00:09:46.830Z,-1.78
2019-02-09T00:10:46.804Z,-1.74
2019-02-09T00:11:46.815Z,-1.78
2019-02-09T00:12:46.774Z,-1.75
2019-02-09T00:13:46.759Z,-1.70
2019-02-09T00:14:46.745Z,-1.70
2019-02-09T00:15:46.767Z,-1.67
2019-02-09T00:16:46.764Z,-1.68
2019-02-09T00:17:46.722Z,-1.53
2019-02-09T00:18:46.705Z,-1.54
2019-02-09T00:19:46.706Z,-1.56
2019-02-09T00:20:46.691Z,-1.57
2019-02-09T00:21:46.723Z,-1.65
2019-02-09T00:22:46.667Z,-1.65
2019-02-09T00:23:46.678Z,-1.70
2019-02-09T00:24:46.690Z,-1.74
2019-02-09T00:25:46.648Z,-1.74
2019-02-09T00:26:46.643Z,-1.75
2019-02-09T00:27:47.632Z,-1.86
2019-02-09T00:28:47.254Z,-1.77
2019-02-09T00:29:46.753Z,-1.77
2019-02-09T00:30:46.593Z,-1.74
2019-02-09T00:31:46.593Z,-1.88
2019-02-09T00:32:46.578Z,-1.78
2019-02-09T00:33:46.655Z,-1.71
2019-02-09T00:34:46.603Z,-1.71
2019-02-09T00:35:46.564Z,-1.77
2019-02-09T00:36:46.722Z,-1.70
2019-02-09T00:37:46.523Z,-1.70
2019-02-09T00:38:46.490Z,-1.72
2019-02-09T00:39:46.534Z,-1.53
2019-02-09T00:40:46.483Z,-1.59
2019-02-09T00:41:46.476Z,-1.64
2019-02-09T00:42:46.457Z,-1.61
2019-02-09T00:43:46.440Z,-1.61
2019-02-09T00:44:46.449Z,-1.61
2019-02-09T00:45:46.467Z,-1.68
2019-02-09T00:46:46.428Z,-1.71
2019-02-09T00:47:46.408Z,-1.77
2019-02-09T00:48:46.407Z,-1.68
2019-02-09T00:49:46.430Z,-1.62
2019-02-09T00:50:46.415Z,-1.54
2019-02-09T00:51:46.361Z,-1.53
2019-02-09T00:52:46.360Z,-1.44
2019-02-09T00:53:48.098Z,-1.57
2019-02-09T00:54:46.382Z,-1.56
2019-02-09T00:55:46.333Z,-1.51
2019-02-09T00:56:46.398Z,-1.57
2019-02-09T00:57:46.341Z,-1.64
2019-02-09T00:58:46.296Z,-1.77
2019-02-09T00:59:53.808Z,-1.68
2019-02-09T01:00:47.319Z,-1.70
2019-02-09T01:01:46.263Z,-1.71
2019-02-09T01:02:46.285Z,-1.74
2019-02-09T01:03:46.247Z,-1.75
2019-02-09T01:04:46.226Z,-1.78
2019-02-09T01:05:46.330Z,-1.80
2019-02-09T01:06:46.234Z,-1.78
2019-02-09T01:07:46.193Z,-1.41
2019-02-09T01:08:46.201Z,-1.54
2019-02-09T01:09:46.329Z,-1.61
2019-02-09T01:10:46.157Z,-1.65
2019-02-09T01:11:46.185Z,-1.70
2019-02-09T01:12:46.143Z,-1.78
2019-02-09T01:13:46.131Z,-1.72
2019-02-09T01:14:46.138Z,-1.71
2019-02-09T01:15:46.173Z,-1.72
2019-02-09T01:16:46.123Z,-1.78
2019-02-09T01:17:46.102Z,-1.75
2019-02-09T01:18:46.081Z,-1.72
2019-02-09T01:19:46.064Z,-1.74
2019-02-09T01:20:46.095Z,-1.88
2019-02-09T01:21:46.090Z,-1.83
2019-02-09T01:22:47.104Z,-1.80
2019-02-09T01:23:46.029Z,-1.88
2019-02-09T01:24:46.041Z,-1.82
2019-02-09T01:25:46.080Z,-1.77
2019-02-09T01:26:46.022Z,-1.83
2019-02-09T01:27:46.021Z,-1.83
2019-02-09T01:28:46.182Z,-1.85
2019-02-09T01:29:45.991Z,-1.95
2019-02-09T01:30:45.970Z,-2.06
2019-02-09T01:31:45.966Z,-1.95
2019-02-09T01:32:45.954Z,-2.01
2019-02-09T01:33:45.945Z,-1.98
2019-02-09T01:34:46.228Z,-1.96
2019-02-09T01:35:45.914Z,-2.06
2019-02-09T01:36:45.939Z,-2.03
2019-02-09T01:37:45.909Z,-1.95
2019-02-09T01:38:45.949Z,-1.93
2019-02-09T01:39:45.919Z,-2.01
2019-02-09T01:40:45.872Z,-2.01
2019-02-09T01:41:45.976Z,-1.96
2019-02-09T01:42:45.845Z,-2.00
2019-02-09T01:43:45.859Z,-2.01
2019-02-09T01:44:45.900Z,-2.03
2019-02-09T01:45:45.827Z,-2.00
2019-02-09T01:46:45.866Z,-1.92
2019-02-09T01:47:45.799Z,-1.92
2019-02-09T01:48:45.804Z,-2.06
2019-02-09T01:49:45.816Z,-2.01
2019-02-09T01:50:45.828Z,-2.01
2019-02-09T01:51:45.797Z,-1.98
2019-02-09T01:52:45.793Z,-2.08
2019-02-09T01:53:46.236Z,-1.95
2019-02-09T01:54:45.726Z,-2.00
2019-02-09T01:55:45.725Z,-2.03
2019-02-09T01:56:45.784Z,-2.07
2019-02-09T01:57:45.759Z,-2.04
2019-02-09T01:58:46.191Z,-2.00
2019-02-09T01:59:45.764Z,-2.00
2019-02-09T02:00:45.706Z,-2.01
2019-02-09T02:01:45.731Z,-1.96
2019-02-09T02:02:45.676Z,-1.96
2019-02-09T02:03:45.641Z,-2.01
2019-02-09T02:04:45.642Z,-2.01
2019-02-09T02:05:45.699Z,-2.10
2019-02-09T02:06:45.644Z,-2.21
2019-02-09T02:07:45.595Z,-2.08
2019-02-09T02:08:45.601Z,-2.07
2019-02-09T02:09:45.605Z,-2.11
2019-02-09T02:10:45.603Z,-2.14
2019-02-09T02:11:45.569Z,-2.06
2019-02-09T02:12:45.536Z,-2.21
2019-02-09T02:13:45.519Z,-2.00
2019-02-09T02:14:45.549Z,-2.06
2019-02-09T02:15:45.526Z,-2.06
2019-02-09T02:16:45.498Z,-2.06
2019-02-09T02:17:45.558Z,-1.85
2019-02-09T02:18:45.497Z,-1.83
2019-02-09T02:19:45.519Z,-1.89
2019-02-09T02:20:45.489Z,-1.88
2019-02-09T02:21:45.432Z,-1.78
2019-02-09T02:22:45.426Z,-1.83
2019-02-09T02:23:45.464Z,-1.88
2019-02-09T02:24:45.425Z,-1.92
2019-02-09T02:25:45.388Z,-1.86
2019-02-09T02:26:45.393Z,-1.92
2019-02-09T02:27:45.364Z,-1.90
2019-02-09T02:28:45.349Z,-1.77
2019-02-09T02:29:45.373Z,-1.77
2019-02-09T02:30:45.333Z,-1.77
2019-02-09T02:31:45.317Z,-1.92
2019-02-09T02:32:45.306Z,-1.95
2019-02-09T02:33:45.344Z,-1.90
2019-02-09T02:34:45.293Z,-1.92
2019-02-09T02:35:45.280Z,-1.83
2019-02-09T02:36:45.276Z,-1.86
2019-02-09T02:37:45.268Z,-1.86
2019-02-09T02:38:45.311Z,-1.95
2019-02-09T02:39:45.236Z,-1.98
2019-02-09T02:40:45.222Z,-1.98
2019-02-09T02:41:45.216Z,-1.92
2019-02-09T02:42:45.199Z,-1.92
2019-02-09T02:43:45.221Z,-1.90
2019-02-09T02:44:45.234Z,-1.96
2019-02-09T02:45:45.198Z,-2.03
2019-02-09T02:46:45.158Z,-2.08
2019-02-09T02:47:45.183Z,-2.06
2019-02-09T02:48:45.188Z,-2.08
2019-02-09T02:49:45.139Z,-2.01
2019-02-09T02:50:45.133Z,-1.95
2019-02-09T02:51:45.110Z,-1.98
2019-02-09T02:52:45.092Z,-1.90
2019-02-09T02:53:45.164Z,-1.95
2019-02-09T02:54:45.076Z,-2.01
2019-02-09T02:55:45.082Z,-2.08
2019-02-09T02:56:45.076Z,-2.18
2019-02-09T02:57:45.032Z,-2.13
2019-02-09T02:58:45.026Z,-2.14
2019-02-09T02:59:45.062Z,-2.08
2019-02-09T03:00:45.003Z,-2.14
2019-02-09T03:01:45.023Z,-2.21
2019-02-09T03:02:45.571Z,-2.19
2019-02-09T03:03:53.604Z,-2.08
2019-02-09T03:04:53.141Z,-2.01
2019-02-09T03:05:45.036Z,-2.01
2019-02-09T03:06:53.706Z,-1.82
2019-02-09T03:07:52.951Z,-1.82
2019-02-09T03:08:44.990Z,-1.82
2019-02-09T03:09:44.922Z,-1.86
2019-02-09T03:10:44.980Z,-1.80
2019-02-09T03:11:44.956Z,-1.80
2019-02-09T03:12:44.898Z,-1.86
2019-02-09T03:13:44.939Z,-2.06
2019-02-09T03:14:44.893Z,-2.03
2019-02-09T03:15:44.892Z,-2.01
2019-02-09T03:16:44.897Z,-2.00
2019-02-09T03:17:44.864Z,-2.01
2019-02-09T03:18:45.782Z,-1.90
2019-02-09T03:19:44.881Z,-1.93
2019-02-09T03:20:44.877Z,-1.80
2019-02-09T03:21:46.780Z,-1.83
2019-02-09T03:22:44.827Z,-1.88
2019-02-09T03:23:45.790Z,-1.86
2019-02-09T03:24:44.759Z,-1.90
2019-02-09T03:25:44.778Z,-1.86
2019-02-09T03:26:44.739Z,-1.80
2019-02-09T03:27:44.727Z,-1.86
2019-02-09T03:28:44.726Z,-2.00
2019-02-09T03:29:44.709Z,-2.01
2019-02-09T03:30:48.405Z,-2.00
2019-02-09T03:31:44.788Z,-2.00
2019-02-09T03:32:44.713Z,-2.06
2019-02-09T03:33:44.662Z,-2.03
2019-02-09T03:34:44.677Z,-1.92
2019-02-09T03:35:44.649Z,-2.00
2019-02-09T03:36:44.653Z,-1.92
2019-02-09T03:37:44.663Z,-1.95
2019-02-09T03:38:44.607Z,-1.90
2019-02-09T03:39:44.601Z,-1.77
2019-02-09T03:40:44.605Z,-1.89
2019-02-09T03:41:44.575Z,-1.88
2019-02-09T03:42:44.566Z,-1.95
2019-02-09T03:43:44.627Z,-1.92
2019-02-09T03:44:44.548Z,-1.86
2019-02-09T03:45:44.692Z,-1.77
2019-02-09T03:46:44.531Z,-1.96
2019-02-09T03:47:44.563Z,-1.92
2019-02-09T03:48:44.508Z,-1.88
2019-02-09T03:49:44.549Z,-1.86
2019-02-09T03:50:44.511Z,-1.93
2019-02-09T03:51:44.488Z,-1.95
2019-02-09T03:52:44.483Z,-2.06
2019-02-09T03:53:44.515Z,-2.06
2019-02-09T03:54:44.457Z,-2.06
2019-02-09T03:55:44.445Z,-2.18
2019-02-09T03:56:44.417Z,-2.19
2019-02-09T03:57:44.422Z,-2.21
2019-02-09T03:58:44.405Z,-2.22
2019-02-09T03:59:44.756Z,-2.18
2019-02-09T04:00:44.396Z,-2.18
2019-02-09T04:01:44.388Z,-2.28
2019-02-09T04:02:44.351Z,-2.37
2019-02-09T04:03:44.342Z,-2.26
2019-02-09T04:04:44.346Z,-2.33
2019-02-09T04:05:44.361Z,-2.41
2019-02-09T04:06:44.314Z,-2.50
2019-02-09T04:07:44.297Z,-2.51
2019-02-09T04:08:44.292Z,-2.53
2019-02-09T04:09:45.304Z,-2.56
2019-02-09T04:10:44.265Z,-2.53
2019-02-09T04:11:44.303Z,-2.48
2019-02-09T04:12:44.251Z,-2.24
2019-02-09T04:13:44.236Z,-2.33
2019-02-09T04:14:44.225Z,-2.29
2019-02-09T04:15:44.226Z,-2.37
2019-02-09T04:16:44.224Z,-2.26
2019-02-09T04:17:44.240Z,-2.29
2019-02-09T04:18:44.189Z,-2.50
2019-02-09T04:19:44.175Z,-2.44
2019-02-09T04:20:44.166Z,-2.48
2019-02-09T04:21:44.193Z,-2.46
2019-02-09T04:22:44.161Z,-2.37
2019-02-09T04:23:44.171Z,-2.44
2019-02-09T04:24:44.124Z,-2.33
2019-02-09T04:25:44.115Z,-2.29
2019-02-09T04:26:44.095Z,-2.38
2019-02-09T04:27:44.092Z,-2.37
2019-02-09T04:28:44.245Z,-2.38
2019-02-09T04:29:44.483Z,-2.41
2019-02-09T04:30:44.058Z,-2.32
2019-02-09T04:31:44.087Z,-2.32
2019-02-09T04:32:44.038Z,-2.16
2019-02-09T04:33:44.027Z,-2.32
2019-02-09T04:34:44.020Z,-2.32
2019-02-09T04:35:44.003Z,-2.22
2019-02-09T04:36:44.009Z,-2.22
2019-02-09T04:37:44.018Z,-2.08
2019-02-09T04:38:43.968Z,-2.01
2019-02-09T04:39:43.965Z,-2.14
2019-02-09T04:40:43.961Z,-2.10
2019-02-09T04:41:43.984Z,-2.13
2019-02-09T04:42:43.929Z,-2.11
2019-02-09T04:43:44.212Z,-2.33
2019-02-09T04:44:43.903Z,-2.26
2019-02-09T04:45:43.895Z,-2.29
2019-02-09T04:46:43.897Z,-2.32
2019-02-09T04:47:44.256Z,-2.32
2019-02-09T04:48:43.866Z,-2.32
2019-02-09T04:49:43.853Z,-2.16
2019-02-09T04:50:43.850Z,-2.10
2019-02-09T04:51:43.845Z,-2.16
2019-02-09T04:52:43.884Z,-2.13
2019-02-09T04:53:43.813Z,-2.22
2019-02-09T04:54:43.822Z,-2.37
2019-02-09T04:55:43.792Z,-2.25
2019-02-09T04:56:43.920Z,-2.14
2019-02-09T04:57:43.769Z,-2.32
2019-02-09T04:58:44.771Z,-2.26
2019-02-09T04:59:43.746Z,-2.28
2019-02-09T05:00:43.735Z,-2.28
2019-02-09T05:01:43.731Z,-2.40
2019-02-09T05:02:44.801Z,-2.33
2019-02-09T05:03:43.762Z,-2.22
2019-02-09T05:04:43.720Z,-2.25
2019-02-09T05:05:43.703Z,-2.35
2019-02-09T05:06:43.772Z,-2.16
2019-02-09T05:07:43.670Z,-2.08
2019-02-09T05:08:43.651Z,-2.18
2019-02-09T05:09:43.725Z,-2.11
2019-02-09T05:10:43.632Z,-2.38
2019-02-09T05:11:44.842Z,-2.26
2019-02-09T05:12:43.604Z,-2.28
2019-02-09T05:13:43.594Z,-2.29
2019-02-09T05:14:43.766Z,-2.35
2019-02-09T05:15:43.571Z,-2.21
2019-02-09T05:16:43.603Z,-2.18
2019-02-09T05:17:43.551Z,-2.29
2019-02-09T05:18:43.756Z,-2.18
2019-02-09T05:19:43.530Z,-2.24
2019-02-09T05:20:43.534Z,-2.24
2019-02-09T05:21:43.510Z,-2.29
2019-02-09T05:22:43.531Z,-2.40
2019-02-09T05:23:43.490Z,-2.47
2019-02-09T05:24:43.502Z,-2.48
2019-02-09T05:25:43.537Z,-2.33
2019-02-09T05:26:43.463Z,-2.29
2019-02-09T05:27:43.496Z,-2.26
2019-02-09T05:28:43.436Z,-2.32
2019-02-09T05:29:43.430Z,-2.28
2019-02-09T05:30:43.414Z,-2.28
2019-02-09T05:31:43.426Z,-2.29
2019-02-09T05:32:43.404Z,-2.28
2019-02-09T05:33:43.564Z,-2.29
2019-02-09T05:34:43.373Z,-2.43
2019-02-09T05:35:43.368Z,-2.41
2019-02-09T05:36:43.353Z,-2.29
2019-02-09T05:37:43.338Z,-2.19
2019-02-09T05:38:43.336Z,-2.19
2019-02-09T05:39:43.490Z,-2.24
2019-02-09T05:40:43.316Z,-2.19
2019-02-09T05:41:43.337Z,-2.14
2019-02-09T05:42:43.285Z,-1.92
2019-02-09T05:43:43.289Z,-1.96
2019-02-09T05:44:43.268Z,-1.98
2019-02-09T05:45:43.253Z,-2.04
2019-02-09T05:46:43.244Z,-2.01
2019-02-09T05:47:43.278Z,-2.07
2019-02-09T05:48:43.224Z,-2.10
2019-02-09T05:49:43.225Z,-2.10
2019-02-09T05:50:43.271Z,-2.13
2019-02-09T05:51:43.200Z,-2.07
2019-02-09T05:52:43.182Z,-2.07
2019-02-09T05:53:43.174Z,-1.83
2019-02-09T05:54:43.160Z,-1.75
2019-02-09T05:55:43.168Z,-1.83
2019-02-09T05:56:43.238Z,-1.89
2019-02-09T05:57:43.137Z,-2.01
2019-02-09T05:58:43.121Z,-2.04
2019-02-09T05:59:43.119Z,-1.95
2019-02-09T06:00:43.101Z,-1.96
2019-02-09T06:01:43.133Z,-1.92
2019-02-09T06:02:43.099Z,-1.90
2019-02-09T06:03:43.068Z,-1.88
2019-02-09T06:04:43.055Z,-2.06
2019-02-09T06:05:43.050Z,-1.90
2019-02-09T06:06:43.040Z,-1.75
2019-02-09T06:07:43.077Z,-1.74
2019-02-09T06:08:43.014Z,-1.56
2019-02-09T06:09:43.027Z,-1.62
2019-02-09T06:10:42.994Z,-1.51
2019-02-09T06:11:42.987Z,-1.36
2019-02-09T06:12:42.977Z,-1.32
2019-02-09T06:13:43.008Z,-1.41
2019-02-09T06:14:42.952Z,-1.59
2019-02-09T06:15:42.950Z,-1.39
2019-02-09T06:16:42.945Z,-1.36
2019-02-09T06:17:42.923Z,-1.57
2019-02-09T06:18:42.912Z,-1.56
2019-02-09T06:19:42.940Z,-1.56
2019-02-09T06:20:42.888Z,-1.59
2019-02-09T06:21:42.906Z,-1.44
2019-02-09T06:22:42.874Z,-1.20
2019-02-09T06:23:42.860Z,-1.15
2019-02-09T06:24:42.886Z,-1.17
2019-02-09T06:25:42.924Z,-1.20
2019-02-09T06:26:43.197Z,-1.28
2019-02-09T06:27:42.835Z,-1.39
2019-02-09T06:28:43.214Z,-1.44
2019-02-09T06:29:42.809Z,-1.49
2019-02-09T06:30:42.807Z,-1.39
2019-02-09T06:31:42.798Z,-1.47
2019-02-09T06:32:42.765Z,-1.43
2019-02-09T06:33:42.801Z,-1.54
2019-02-09T06:34:42.787Z,-1.49
2019-02-09T06:35:43.679Z,-1.38
2019-02-09T06:36:42.785Z,-1.50
2019-02-09T06:37:42.715Z,-1.47
2019-02-09T06:38:42.717Z,-1.41
2019-02-09T06:39:42.707Z,-1.43
2019-02-09T06:40:42.689Z,-1.43
2019-02-09T06:41:42.672Z,-1.41
2019-02-09T06:42:42.702Z,-1.18
2019-02-09T06:43:42.669Z,-1.20
2019-02-09T06:44:42.641Z,-1.18
2019-02-09T06:45:42.635Z,-1.17
2019-02-09T06:46:42.634Z,-1.17
2019-02-09T06:47:42.607Z,-1.08
2019-02-09T06:48:42.651Z,-1.05
2019-02-09T06:49:42.592Z,-1.02
2019-02-09T06:50:42.581Z,-0.93
2019-02-09T06:51:42.589Z,-0.96
2019-02-09T06:52:42.562Z,-1.03
2019-02-09T06:53:42.552Z,-1.02
2019-02-09T06:54:42.572Z,-1.07
2019-02-09T06:55:42.540Z,-1.03
2019-02-09T06:56:42.520Z,-1.10
2019-02-09T06:57:42.509Z,-1.03
2019-02-09T06:58:42.532Z,-1.00
2019-02-09T06:59:42.490Z,-0.99
2019-02-09T07:00:42.499Z,-1.10
2019-02-09T07:01:48.580Z,-1.10
2019-02-09T07:02:43.451Z,-1.03
2019-02-09T07:03:42.444Z,-1.03
2019-02-09T07:04:42.432Z,-0.97
2019-02-09T07:05:42.442Z,-0.89
2019-02-09T07:06:42.411Z,-0.93
2019-02-09T07:07:42.436Z,-0.85
2019-02-09T07:08:42.400Z,-0.78
2019-02-09T07:09:42.395Z,-0.67
2019-02-09T07:10:42.380Z,-0.67
2019-02-09T07:11:42.369Z,-0.76
2019-02-09T07:12:42.368Z,-0.67
2019-02-09T07:13:42.383Z,-0.63
2019-02-09T07:14:42.343Z,-0.55
2019-02-09T07:15:42.314Z,-0.44
2019-02-09T07:16:42.306Z,-0.45
2019-02-09T07:17:42.326Z,-0.37
2019-02-09T07:18:42.290Z,-0.30
2019-02-09T07:19:42.284Z,-0.26
2019-02-09T07:20:42.266Z,-0.35
2019-02-09T07:21:42.278Z,-0.44
2019-02-09T07:22:42.451Z,-0.44
2019-02-09T07:23:42.225Z,-0.49
2019-02-09T07:24:42.260Z,-0.38
2019-02-09T07:25:42.196Z,-0.27
2019-02-09T07:26:42.201Z,-0.30
2019-02-09T07:27:42.198Z,-0.26
2019-02-09T07:28:42.165Z,-0.35
2019-02-09T07:29:42.156Z,-0.35
2019-02-09T07:30:42.267Z,-0.34
2019-02-09T07:31:42.146Z,-0.45
2019-02-09T07:32:42.122Z,-0.34
2019-02-09T07:33:43.096Z,-0.35
2019-02-09T07:34:42.118Z,-0.34
2019-02-09T07:35:43.729Z,-0.34
2019-02-09T07:36:42.081Z,-0.17
2019-02-09T07:37:42.066Z,-0.16
2019-02-09T07:38:42.057Z,-0.13
2019-02-09T07:39:42.061Z,-0.20
2019-02-09T07:40:42.039Z,-0.17
2019-02-09T07:41:42.026Z,-0.24
2019-02-09T07:42:42.164Z,-0.31
2019-02-09T07:43:42.011Z,-0.30
2019-02-09T07:44:42.019Z,-0.21
2019-02-09T07:45:42.024Z,-0.13
2019-02-09T07:46:41.969Z,-0.16
2019-02-09T07:47:41.963Z,-0.23
2019-02-09T07:48:41.947Z,-0.26
2019-02-09T07:49:41.938Z,-0.31
2019-02-09T07:50:42.003Z,-0.41
2019-02-09T07:51:41.923Z,-0.42
2019-02-09T07:52:41.907Z,-0.49
2019-02-09T07:53:41.893Z,-0.50
2019-02-09T07:54:41.949Z,-0.62
2019-02-09T07:55:41.930Z,-0.63
2019-02-09T07:56:41.905Z,-0.67
2019-02-09T07:57:41.848Z,-0.78
2019-02-09T07:58:41.852Z,-0.73
2019-02-09T07:59:41.830Z,-0.81
2019-02-09T08:00:41.818Z,-0.81
2019-02-09T08:01:42.015Z,-0.73
2019-02-09T08:02:41.820Z,-0.74
2019-02-09T08:03:41.783Z,-0.59
2019-02-09T08:04:41.769Z,-0.44
2019-02-09T08:05:41.762Z,-0.60
2019-02-09T08:06:41.750Z,-0.55
2019-02-09T08:07:41.752Z,-0.47
2019-02-09T08:08:41.919Z,-0.47
2019-02-09T08:09:41.735Z,-0.41
2019-02-09T08:10:41.706Z,-0.34
2019-02-09T08:11:41.721Z,-0.39
2019-02-09T08:12:41.690Z,-0.53
2019-02-09T08:13:41.708Z,-0.67
2019-02-09T08:14:42.585Z,-0.71
2019-02-09T08:15:41.650Z,-0.74
2019-02-09T08:16:41.676Z,-0.76
2019-02-09T08:17:41.626Z,-0.73
2019-02-09T08:18:41.766Z,-0.68
2019-02-09T08:19:41.610Z,-0.62
2019-02-09T08:20:41.611Z,-0.70
2019-02-09T08:21:41.585Z,-0.53
2019-02-09T08:22:41.614Z,-0.42
2019-02-09T08:23:41.566Z,-0.08
2019-02-09T08:24:41.566Z,0.95
2019-02-09T08:25:41.546Z,2.23
2019-02-09T08:26:41.553Z,3.52
2019-02-09T08:27:41.520Z,4.38
2019-02-09T08:28:41.514Z,4.65
2019-02-09T08:29:41.503Z,4.84
2019-02-09T08:30:41.641Z,5.20
2019-02-09T08:31:41.548Z,6.05
2019-02-09T08:32:44.131Z,7.08
2019-02-09T08:33:41.460Z,7.69
2019-02-09T08:34:41.455Z,8.40
2019-02-09T08:35:41.463Z,9.04
2019-02-09T08:36:41.420Z,9.60
2019-02-09T08:37:41.416Z,9.62
2019-02-09T08:38:41.397Z,9.40
2019-02-09T08:39:41.388Z,9.22
2019-02-09T08:40:41.379Z,9.49
2019-02-09T08:41:41.368Z,9.63
2019-02-09T08:42:41.389Z,9.78
2019-02-09T08:43:41.515Z,9.96
2019-02-09T08:44:41.338Z,9.68
2019-02-09T08:45:41.324Z,9.53
2019-02-09T08:46:41.311Z,9.55
2019-02-09T08:47:41.338Z,9.68
2019-02-09T08:48:41.362Z,9.68
2019-02-09T08:49:41.281Z,9.58
2019-02-09T08:50:41.268Z,10.35
2019-02-09T08:51:41.281Z,11.06
2019-02-09T08:52:41.249Z,11.38
2019-02-09T08:53:41.235Z,10.60
2019-02-09T08:54:41.272Z,9.52
2019-02-09T08:55:41.258Z,8.78
2019-02-09T08:56:41.295Z,9.12
2019-02-09T08:57:42.179Z,9.63
2019-02-09T08:58:41.217Z,10.09
2019-02-09T08:59:41.209Z,10.91
2019-02-09T09:00:41.325Z,11.57
2019-02-09T09:01:43.287Z,12.18
2019-02-09T09:02:42.209Z,11.67
2019-02-09T09:03:41.270Z,9.86
2019-02-09T09:04:41.303Z,8.85
2019-02-09T09:05:42.835Z,8.68
2019-02-09T09:06:43.811Z,9.44
2019-02-09T09:07:41.196Z,9.91
2019-02-09T09:08:41.239Z,10.47
2019-02-09T09:09:41.292Z,10.10
2019-02-09T09:10:41.153Z,10.57
2019-02-09T09:11:41.108Z,10.47
2019-02-09T09:12:41.050Z,10.43
2019-02-09T09:13:41.059Z,10.54
2019-02-09T09:14:41.162Z,11.19
2019-02-09T09:15:41.054Z,11.97
2019-02-09T09:16:41.012Z,12.33
2019-02-09T09:17:41.002Z,11.72
2019-02-09T09:18:40.997Z,11.02
2019-02-09T09:19:40.978Z,10.28
2019-02-09T09:20:40.980Z,10.46
2019-02-09T09:21:40.979Z,10.65
2019-02-09T09:22:41.281Z,10.93
2019-02-09T09:23:40.929Z,11.06
2019-02-09T09:24:40.941Z,11.33
2019-02-09T09:25:40.885Z,11.39
2019-02-09T09:26:40.917Z,10.28
2019-02-09T09:27:40.905Z,8.73
2019-02-09T09:28:40.867Z,8.13
2019-02-09T09:29:40.859Z,8.22
2019-02-09T09:30:40.836Z,9.34
2019-02-09T09:31:40.828Z,9.83
2019-02-09T09:32:40.827Z,8.86
2019-02-09T09:33:40.847Z,8.36
2019-02-09T09:34:40.794Z,7.77
2019-02-09T09:35:40.779Z,7.76
2019-02-09T09:36:40.764Z,7.74
2019-02-09T09:37:40.771Z,7.69
2019-02-09T09:38:41.567Z,7.66
2019-02-09T09:39:40.783Z,7.51
2019-02-09T09:40:40.728Z,7.24
2019-02-09T09:41:40.728Z,7.21
2019-02-09T09:42:40.707Z,7.12
2019-02-09T09:43:40.700Z,6.71
2019-02-09T09:44:40.698Z,6.08
2019-02-09T09:45:40.720Z,6.46
2019-02-09T09:46:40.675Z,7.48
2019-02-09T09:47:40.656Z,7.19
2019-02-09T09:48:40.641Z,6.58
2019-02-09T09:49:40.639Z,6.13
2019-02-09T09:50:40.829Z,5.73
2019-02-09T09:51:40.655Z,5.41
2019-02-09T09:52:40.593Z,6.05
2019-02-09T09:53:40.601Z,6.13
2019-02-09T09:54:40.752Z,6.06
2019-02-09T09:55:40.597Z,6.39
2019-02-09T09:56:40.580Z,6.58
2019-02-09T09:57:40.583Z,6.96
2019-02-09T09:58:40.531Z,6.93
2019-02-09T09:59:40.520Z,6.53
2019-02-09T10:00:41.095Z,6.43
2019-02-09T10:01:40.496Z,6.10
2019-02-09T10:02:40.497Z,6.55
2019-02-09T10:03:40.663Z,6.48
2019-02-09T10:04:40.463Z,8.24
2019-02-09T10:05:40.462Z,9.50
2019-02-09T10:06:40.440Z,11.03
2019-02-09T10:07:40.436Z,11.79
2019-02-09T10:08:40.417Z,12.00
2019-02-09T10:09:40.460Z,11.82
2019-02-09T10:10:40.395Z,12.51
2019-02-09T10:11:40.446Z,12.29
2019-02-09T10:12:40.375Z,12.31
2019-02-09T10:13:40.398Z,12.91
2019-02-09T10:14:40.349Z,12.62
2019-02-09T10:15:41.115Z,12.36
2019-02-09T10:16:40.333Z,12.85
2019-02-09T10:17:40.330Z,12.81
2019-02-09T10:18:40.366Z,12.19
2019-02-09T10:19:40.308Z,11.93
2019-02-09T10:20:40.300Z,11.53
2019-02-09T10:21:40.280Z,11.20
2019-02-09T10:22:40.292Z,10.95
2019-02-09T10:23:40.261Z,11.23
2019-02-09T10:24:40.353Z,11.12
2019-02-09T10:25:40.329Z,11.49
2019-02-09T10:26:40.247Z,11.41
2019-02-09T10:27:40.227Z,10.80
2019-02-09T10:28:40.284Z,10.46
2019-02-09T10:29:42.148Z,10.63
2019-02-09T10:30:41.132Z,10.94
2019-02-09T10:31:41.234Z,11.59
2019-02-09T10:32:44.501Z,11.59
2019-02-09T10:33:40.213Z,11.75
2019-02-09T10:34:40.151Z,11.96
2019-02-09T10:35:40.143Z,12.38
2019-02-09T10:36:40.681Z,12.34
2019-02-09T10:37:41.681Z,10.86
2019-02-09T10:38:40.651Z,9.56
2019-02-09T10:39:40.648Z,9.70
2019-02-09T10:40:40.233Z,11.26
2019-02-09T10:41:40.652Z,12.00
2019-02-09T10:42:40.651Z,12.87
2019-02-09T10:43:40.100Z,12.36
2019-02-09T10:44:40.053Z,11.54
2019-02-09T10:45:40.043Z,11.60
2019-02-09T10:46:40.064Z,11.64
2019-02-09T10:47:40.622Z,11.20
2019-02-09T10:48:39.982Z,11.24
2019-02-09T10:49:39.957Z,10.57
2019-02-09T10:50:39.956Z,10.13
2019-02-09T10:51:39.952Z,11.03
2019-02-09T10:52:39.990Z,12.05
2019-02-09T10:53:39.934Z,12.23
2019-02-09T10:54:39.921Z,11.87
2019-02-09T10:55:39.902Z,12.04
2019-02-09T10:56:39.927Z,12.38
2019-02-09T10:57:39.910Z,13.14
2019-02-09T10:58:40.142Z,13.73
2019-02-09T10:59:39.864Z,14.04
2019-02-09T11:00:39.851Z,14.12
2019-02-09T11:01:39.865Z,13.25
2019-02-09T11:02:39.823Z,12.99
2019-02-09T11:03:39.850Z,13.32
2019-02-09T11:04:39.795Z,13.35
2019-02-09T11:05:39.787Z,13.38
2019-02-09T11:06:39.775Z,13.09
2019-02-09T11:07:39.766Z,13.61
2019-02-09T11:08:39.752Z,13.47
2019-02-09T11:09:39.801Z,13.03
2019-02-09T11:10:39.737Z,12.76
2019-02-09T11:11:39.722Z,12.46
2019-02-09T11:12:39.717Z,12.30
2019-02-09T11:13:39.689Z,12.04
2019-02-09T11:14:39.679Z,11.72
2019-02-09T11:15:39.714Z,11.63
2019-02-09T11:16:39.668Z,11.49
2019-02-09T11:17:39.657Z,11.81
2019-02-09T11:18:39.677Z,12.30
2019-02-09T11:19:39.640Z,12.49
2019-02-09T11:20:39.632Z,12.74
2019-02-09T11:21:39.653Z,13.22
2019-02-09T11:22:39.608Z,12.96
2019-02-09T11:23:39.578Z,12.87
2019-02-09T11:24:39.571Z,13.10
2019-02-09T11:25:39.559Z,12.84
2019-02-09T11:26:39.555Z,12.95
2019-02-09T11:27:39.593Z,12.94
2019-02-09T11:28:39.523Z,12.58
2019-02-09T11:29:39.536Z,12.21
2019-02-09T11:30:39.506Z,12.15
2019-02-09T11:31:39.493Z,12.49
2019-02-09T11:32:39.493Z,12.29
2019-02-09T11:33:39.590Z,12.18
2019-02-09T11:34:39.460Z,12.58
2019-02-09T11:35:39.469Z,13.25
2019-02-09T11:36:39.445Z,13.17
2019-02-09T11:37:39.425Z,12.87
2019-02-09T11:38:39.430Z,12.59
2019-02-09T11:39:39.463Z,13.04
2019-02-09T11:40:39.402Z,12.85
2019-02-09T11:41:39.387Z,13.29
2019-02-09T11:42:39.390Z,13.66
2019-02-09T11:43:39.366Z,13.01
2019-02-09T11:44:41.106Z,13.17
2019-02-09T11:45:39.374Z,13.09
2019-02-09T11:46:39.407Z,13.73
2019-02-09T11:47:39.345Z,14.36
2019-02-09T11:48:39.310Z,14.85
2019-02-09T11:49:39.317Z,14.90
2019-02-09T11:50:39.294Z,14.41
2019-02-09T11:51:39.314Z,14.09
2019-02-09T11:52:39.265Z,13.94
2019-02-09T11:53:39.343Z,14.52
2019-02-09T11:54:39.260Z,14.34
2019-02-09T11:55:39.234Z,14.08
2019-02-09T11:56:39.272Z,13.57
2019-02-09T11:57:39.212Z,12.71
2019-02-09T11:58:39.199Z,12.38
2019-02-09T11:59:39.192Z,12.76
2019-02-09T12:00:39.176Z,12.79
2019-02-09T12:01:39.169Z,13.25
2019-02-09T12:02:39.152Z,13.38
2019-02-09T12:03:39.175Z,13.03
2019-02-09T12:04:39.187Z,12.74
2019-02-09T12:05:39.123Z,11.69
2019-02-09T12:06:39.113Z,11.17
2019-02-09T12:07:39.097Z,10.80
2019-02-09T12:08:39.087Z,10.44
2019-02-09T12:09:39.078Z,10.35
2019-02-09T12:10:39.133Z,10.58
2019-02-09T12:11:39.055Z,10.94
2019-02-09T12:12:39.044Z,11.16
2019-02-09T12:13:39.034Z,10.76
2019-02-09T12:14:39.024Z,10.98
2019-02-09T12:15:39.014Z,11.06
2019-02-09T12:16:39.027Z,10.98
2019-02-09T12:17:38.990Z,10.54
2019-02-09T12:18:38.985Z,10.34
2019-02-09T12:19:38.978Z,10.16
2019-02-09T12:20:38.956Z,9.93
2019-02-09T12:21:38.987Z,10.13
2019-02-09T12:22:38.932Z,10.44
2019-02-09T12:23:38.977Z,10.38
2019-02-09T12:24:38.925Z,10.60
2019-02-09T12:25:38.911Z,10.60
2019-02-09T12:26:38.896Z,10.36
2019-02-09T12:27:38.878Z,10.36
2019-02-09T12:28:38.919Z,10.54
2019-02-09T12:29:38.855Z,10.47
2019-02-09T12:30:38.844Z,10.43
2019-02-09T12:31:38.865Z,10.70
2019-02-09T12:32:38.850Z,10.42
2019-02-09T12:33:38.809Z,10.66
2019-02-09T12:34:38.799Z,11.06
2019-02-09T12:35:38.791Z,11.24
2019-02-09T12:36:38.778Z,11.27
2019-02-09T12:37:38.763Z,11.44
2019-02-09T12:38:38.777Z,11.20
2019-02-09T12:39:38.746Z,11.30
2019-02-09T12:40:38.732Z,11.21
2019-02-09T12:41:38.720Z,11.33
2019-02-09T12:42:38.709Z,11.46
2019-02-09T12:43:38.694Z,11.66
2019-02-09T12:44:38.735Z,11.82
2019-02-09T12:45:38.676Z,12.08
2019-02-09T12:46:38.706Z,12.08
2019-02-09T12:47:39.586Z,12.03
2019-02-09T12:48:38.662Z,12.00
2019-02-09T12:49:38.653Z,11.97
2019-02-09T12:50:38.631Z,11.94
2019-02-09T12:51:38.622Z,11.72
2019-02-09T12:52:38.669Z,11.88
2019-02-09T12:53:38.589Z,12.59
2019-02-09T12:54:38.578Z,12.12
2019-02-09T12:55:38.579Z,11.59